createdAt,value
2023-01-31T00:01:33.323Z,3.93
2023-01-31T00:04:05.208Z,3.95
2023-01-31T00:06:37.398Z,4.00
2023-01-31T00:09:06.227Z,3.96
2023-01-31T00:11:33.043Z,3.94
2023-01-31T00:14:01.109Z,3.91
2023-01-31T00:16:27.745Z,3.87
2023-01-31T00:18:54.301Z,3.89
2023-01-31T00:21:26.381Z,3.85
2023-01-31T00:23:54.441Z,3.82
2023-01-31T00:26:24.716Z,3.84
2023-01-31T00:28:55.030Z,3.84
2023-01-31T00:31:23.375Z,3.84
2023-01-31T00:33:51.621Z,3.74
2023-01-31T00:36:20.206Z,3.79
2023-01-31T00:38:51.731Z,3.81
2023-01-31T00:41:19.406Z,3.90
2023-01-31T00:43:45.825Z,3.89
2023-01-31T00:46:12.295Z,3.76
2023-01-31T00:48:39.226Z,3.74
2023-01-31T00:51:06.095Z,3.65
2023-01-31T00:53:33.027Z,3.68
2023-01-31T00:56:07.179Z,3.74
2023-01-31T00:58:34.403Z,3.78
2023-01-31T01:01:08.267Z,3.73
2023-01-31T01:03:35.590Z,3.75
2023-01-31T01:06:02.077Z,3.72
2023-01-31T01:08:29.692Z,3.78
2023-01-31T01:10:56.459Z,3.79
2023-01-31T01:13:22.884Z,3.73
2023-01-31T01:15:49.432Z,3.74
2023-01-31T01:18:15.922Z,3.74
2023-01-31T01:20:42.482Z,3.68
2023-01-31T01:23:08.990Z,3.71
2023-01-31T01:25:45.195Z,3.72
2023-01-31T01:28:11.646Z,3.76
2023-01-31T01:30:39.564Z,3.82
2023-01-31T01:33:06.008Z,3.78
2023-01-31T01:35:33.034Z,3.77
2023-01-31T01:37:59.441Z,3.76
2023-01-31T01:40:25.885Z,3.82
2023-01-31T01:42:52.347Z,3.84
2023-01-31T01:45:21.039Z,3.86
2023-01-31T01:47:50.890Z,3.86
2023-01-31T01:50:23.303Z,3.86
2023-01-31T01:52:56.830Z,3.86
2023-01-31T01:55:41.962Z,3.80
2023-01-31T01:58:14.902Z,3.84
2023-01-31T02:00:41.581Z,3.80
2023-01-31T02:03:08.680Z,3.79
2023-01-31T02:05:47.976Z,3.74
2023-01-31T02:08:17.386Z,3.75
2023-01-31T02:11:02.086Z,3.73
2023-01-31T02:13:29.630Z,3.82
2023-01-31T02:15:56.863Z,3.80
2023-01-31T02:18:25.475Z,3.79
2023-01-31T02:21:10.819Z,3.78
2023-01-31T02:24:14.904Z,3.76
2023-01-31T02:26:50.435Z,3.71
2023-01-31T02:29:35.654Z,3.69
2023-01-31T02:32:52.640Z,3.66
2023-01-31T02:35:27.948Z,3.65
2023-01-31T02:38:02.615Z,3.61
2023-01-31T02:40:41.202Z,3.59
2023-01-31T02:43:14.081Z,3.58
2023-01-31T02:45:58.544Z,3.68
2023-01-31T02:48:44.238Z,3.71
2023-01-31T02:51:31.550Z,3.68
2023-01-31T02:54:51.567Z,3.71
2023-01-31T02:57:18.987Z,3.71
2023-01-31T02:59:46.237Z,3.73
2023-01-31T03:02:13.465Z,3.72
2023-01-31T03:04:41.353Z,3.71
2023-01-31T03:07:15.877Z,3.77
2023-01-31T03:10:12.568Z,3.71
2023-01-31T03:13:02.882Z,3.76
2023-01-31T03:16:18.799Z,3.75
2023-01-31T03:18:51.076Z,3.79
2023-01-31T03:21:26.373Z,3.77
2023-01-31T03:23:57.371Z,3.77
2023-01-31T03:26:25.810Z,3.77
2023-01-31T03:28:57.181Z,3.77
2023-01-31T03:31:25.590Z,3.78
2023-01-31T03:33:56.804Z,3.81
2023-01-31T03:36:38.574Z,3.85
2023-01-31T03:39:29.832Z,3.85
2023-01-31T03:42:02.880Z,3.79
2023-01-31T03:44:55.172Z,3.85
2023-01-31T03:47:24.119Z,3.87
2023-01-31T03:49:52.761Z,3.86
2023-01-31T03:52:26.751Z,3.81
2023-01-31T03:55:04.459Z,3.77
2023-01-31T03:57:35.994Z,3.79
2023-01-31T04:00:07.412Z,3.75
2023-01-31T04:02:37.053Z,3.73
2023-01-31T04:05:09.116Z,3.75
2023-01-31T04:07:36.782Z,3.72
2023-01-31T04:10:12.072Z,3.66
2023-01-31T04:12:38.818Z,3.61
2023-01-31T04:15:06.676Z,3.65
2023-01-31T04:17:33.408Z,3.59
2023-01-31T04:20:00.342Z,3.61
2023-01-31T04:22:27.241Z,3.60
2023-01-31T04:24:53.660Z,3.54
2023-01-31T04:27:20.217Z,3.56
2023-01-31T04:29:46.611Z,3.51
2023-01-31T04:32:13.043Z,3.44
2023-01-31T04:34:39.607Z,3.37
2023-01-31T04:37:06.064Z,3.34
2023-01-31T04:39:33.249Z,3.28
2023-01-31T04:41:59.861Z,3.18
2023-01-31T04:44:26.274Z,3.22
2023-01-31T04:46:52.840Z,3.15
2023-01-31T04:49:19.279Z,3.14
2023-01-31T04:51:45.741Z,3.16
2023-01-31T04:54:12.191Z,3.10
2023-01-31T04:56:38.668Z,3.09
2023-01-31T04:59:05.091Z,3.13
2023-01-31T05:01:31.883Z,3.16
2023-01-31T05:03:58.465Z,3.12
2023-01-31T05:06:24.926Z,3.05
2023-01-31T05:08:54.495Z,3.01
2023-01-31T05:11:21.393Z,3.04
2023-01-31T05:13:48.157Z,3.01
2023-01-31T05:16:14.628Z,3.07
2023-01-31T05:18:41.100Z,3.07
2023-01-31T05:21:08.268Z,3.09
2023-01-31T05:23:34.763Z,3.07
2023-01-31T05:26:01.232Z,3.03
2023-01-31T05:28:27.751Z,3.10
2023-01-31T05:30:55.047Z,3.11
2023-01-31T05:33:21.850Z,3.16
2023-01-31T05:35:48.761Z,3.18
2023-01-31T05:38:15.838Z,3.16
2023-01-31T05:40:42.283Z,3.22
2023-01-31T05:43:08.753Z,3.28
2023-01-31T05:45:35.179Z,3.25
2023-01-31T05:48:02.504Z,3.29
2023-01-31T05:50:29.093Z,3.32
2023-01-31T05:53:03.171Z,3.32
2023-01-31T05:55:31.178Z,3.36
2023-01-31T05:57:57.741Z,3.37
2023-01-31T06:00:24.335Z,3.40
2023-01-31T06:02:50.810Z,3.39
2023-01-31T06:05:18.113Z,3.44
2023-01-31T06:07:44.674Z,3.46
2023-01-31T06:10:13.751Z,3.45
2023-01-31T06:12:40.541Z,3.39
2023-01-31T06:15:07.449Z,3.40
2023-01-31T06:17:34.227Z,3.47
2023-01-31T06:20:00.685Z,3.49
2023-01-31T06:22:27.100Z,3.49
2023-01-31T06:24:53.569Z,3.51
2023-01-31T06:27:19.942Z,3.51
2023-01-31T06:29:46.353Z,3.54
2023-01-31T06:32:12.895Z,3.58
2023-01-31T06:34:39.345Z,3.56
2023-01-31T06:37:09.724Z,3.55
2023-01-31T06:39:36.351Z,3.49
2023-01-31T06:42:03.042Z,3.53
2023-01-31T06:44:29.481Z,3.53
2023-01-31T06:46:57.335Z,3.57
2023-01-31T06:49:23.787Z,3.56
2023-01-31T06:51:50.208Z,3.57
2023-01-31T06:54:16.639Z,3.64
2023-01-31T06:56:43.009Z,3.64
2023-01-31T06:59:09.420Z,3.60
2023-01-31T07:01:36.057Z,3.61
2023-01-31T07:04:02.520Z,3.59
2023-01-31T07:06:29.004Z,3.60
2023-01-31T07:08:56.062Z,3.57
2023-01-31T07:11:22.619Z,3.63
2023-01-31T07:13:50.292Z,3.58
2023-01-31T07:16:17.257Z,3.59
2023-01-31T07:18:43.672Z,3.51
2023-01-31T07:21:10.879Z,3.55
2023-01-31T07:23:37.310Z,3.44
2023-01-31T07:26:05.045Z,3.47
2023-01-31T07:28:31.647Z,3.44
2023-01-31T07:31:07.633Z,3.40
2023-01-31T07:33:34.438Z,3.40
2023-01-31T07:36:03.321Z,3.36
2023-01-31T07:38:30.081Z,3.41
2023-01-31T07:41:01.084Z,3.41
2023-01-31T07:43:27.833Z,3.41
2023-01-31T07:45:54.481Z,3.46
2023-01-31T07:48:23.542Z,3.48
2023-01-31T07:50:58.632Z,3.55
2023-01-31T07:53:26.702Z,3.56
2023-01-31T07:55:53.125Z,3.60
2023-01-31T07:58:19.557Z,3.68
2023-01-31T08:01:04.283Z,3.68
2023-01-31T08:03:34.580Z,3.77
2023-01-31T08:06:03.675Z,3.79
2023-01-31T08:08:30.707Z,3.83
2023-01-31T08:10:57.213Z,3.89
2023-01-31T08:13:23.744Z,3.91
2023-01-31T08:15:52.382Z,3.95
2023-01-31T08:18:19.167Z,3.99
2023-01-31T08:20:46.113Z,4.01
2023-01-31T08:23:12.581Z,3.99
2023-01-31T08:25:38.997Z,4.05
2023-01-31T08:28:05.559Z,4.08
2023-01-31T08:30:32.774Z,4.11
2023-01-31T08:32:59.844Z,4.04
2023-01-31T08:35:26.679Z,4.11
2023-01-31T08:37:55.323Z,4.10
2023-01-31T08:40:25.120Z,4.10
2023-01-31T08:43:00.447Z,4.15
2023-01-31T08:45:28.337Z,4.17
2023-01-31T08:47:56.310Z,4.15
2023-01-31T08:50:28.015Z,4.19
2023-01-31T08:52:56.004Z,4.22
2023-01-31T08:55:23.405Z,4.29
2023-01-31T08:57:59.443Z,4.29
2023-01-31T09:00:27.498Z,4.33
2023-01-31T09:02:59.570Z,4.37
2023-01-31T09:05:27.864Z,4.36
2023-01-31T09:07:54.807Z,4.36
2023-01-31T09:10:22.224Z,4.35
2023-01-31T09:12:48.749Z,4.33
2023-01-31T09:15:15.155Z,4.33
2023-01-31T09:17:43.391Z,4.35
2023-01-31T09:20:10.487Z,4.36
2023-01-31T09:22:37.450Z,4.40
2023-01-31T09:25:06.018Z,4.41
2023-01-31T09:27:32.526Z,4.40
2023-01-31T09:29:59.015Z,4.41
2023-01-31T09:32:25.409Z,4.52
2023-01-31T09:34:51.885Z,4.55
2023-01-31T09:37:18.400Z,4.59
2023-01-31T09:39:44.877Z,4.63
2023-01-31T09:42:20.261Z,4.74
2023-01-31T09:44:58.485Z,4.71
2023-01-31T09:47:37.999Z,4.70
2023-01-31T09:50:12.639Z,4.81
2023-01-31T09:52:39.246Z,4.86
2023-01-31T09:55:08.181Z,4.93
2023-01-31T09:57:49.887Z,4.92
2023-01-31T10:00:30.524Z,4.98
2023-01-31T10:03:28.271Z,4.95
2023-01-31T10:06:04.109Z,4.96
2023-01-31T10:08:41.077Z,4.97
2023-01-31T10:11:16.853Z,4.94
2023-01-31T10:13:49.806Z,5.06
2023-01-31T10:16:28.222Z,5.17
2023-01-31T10:19:01.824Z,5.31
2023-01-31T10:21:41.093Z,5.41
2023-01-31T10:24:23.864Z,5.40
2023-01-31T10:26:52.659Z,5.28
2023-01-31T10:29:31.922Z,5.35
2023-01-31T10:32:15.145Z,5.29
2023-01-31T10:34:53.689Z,5.26
2023-01-31T10:37:49.554Z,5.16
2023-01-31T10:40:38.079Z,5.07
2023-01-31T10:43:22.917Z,5.00
2023-01-31T10:45:49.497Z,5.04
2023-01-31T10:48:27.561Z,5.04
2023-01-31T10:51:06.144Z,5.02
2023-01-31T10:53:44.033Z,5.03
2023-01-31T10:56:19.890Z,5.06
2023-01-31T10:58:47.619Z,5.06
2023-01-31T11:01:15.207Z,5.12
2023-01-31T11:03:49.530Z,5.09
2023-01-31T11:06:16.393Z,5.15
2023-01-31T11:08:50.443Z,5.11
2023-01-31T11:11:20.250Z,5.11
2023-01-31T11:14:04.638Z,5.12
2023-01-31T11:16:35.160Z,5.11
2023-01-31T11:19:04.630Z,5.09
2023-01-31T11:21:34.212Z,5.12
2023-01-31T11:24:16.000Z,5.14
2023-01-31T11:26:51.717Z,5.11
2023-01-31T11:29:25.689Z,5.17
2023-01-31T11:31:52.423Z,5.09
2023-01-31T11:34:29.751Z,5.12
2023-01-31T11:37:05.626Z,5.10
2023-01-31T11:39:35.426Z,5.03
2023-01-31T11:42:13.589Z,5.01
2023-01-31T11:45:01.857Z,4.99
2023-01-31T11:47:45.663Z,5.05
2023-01-31T11:50:26.115Z,5.11
2023-01-31T11:52:56.797Z,5.10
2023-01-31T11:55:23.897Z,5.12
2023-01-31T11:58:00.762Z,5.21
2023-01-31T12:00:30.997Z,5.20
2023-01-31T12:03:08.977Z,5.19
2023-01-31T12:05:49.496Z,5.23
2023-01-31T12:08:37.949Z,5.25
2023-01-31T12:11:19.567Z,5.23
2023-01-31T12:13:48.855Z,5.22
2023-01-31T12:16:21.671Z,5.19
2023-01-31T12:19:03.336Z,5.14
2023-01-31T12:22:04.980Z,5.10
2023-01-31T12:24:37.329Z,5.07
2023-01-31T12:27:13.943Z,5.09
2023-01-31T12:29:57.031Z,5.07
2023-01-31T12:33:08.691Z,5.05
2023-01-31T12:36:02.162Z,5.04
2023-01-31T12:38:42.188Z,5.02
2023-01-31T12:41:11.472Z,5.02
2023-01-31T12:43:46.049Z,5.00
2023-01-31T12:46:45.695Z,5.09
2023-01-31T12:49:36.396Z,5.17
2023-01-31T12:52:26.187Z,5.22
2023-01-31T12:55:25.727Z,5.25
2023-01-31T12:58:09.400Z,5.31
2023-01-31T13:00:47.662Z,5.31
2023-01-31T13:03:39.267Z,5.30
2023-01-31T13:06:15.502Z,5.29
2023-01-31T13:09:07.199Z,5.28
2023-01-31T13:11:49.026Z,5.23
2023-01-31T13:14:19.925Z,5.21
2023-01-31T13:16:51.005Z,5.19
2023-01-31T13:19:26.578Z,5.19
2023-01-31T13:21:57.848Z,5.13
2023-01-31T13:24:32.729Z,5.13
2023-01-31T13:27:21.135Z,5.16
2023-01-31T13:29:56.661Z,5.22
2023-01-31T13:32:42.283Z,5.24
2023-01-31T13:35:23.033Z,5.31
2023-01-31T13:37:56.008Z,5.32
2023-01-31T13:40:34.184Z,5.32
2023-01-31T13:43:07.025Z,5.32
2023-01-31T13:45:38.819Z,5.36
2023-01-31T13:48:21.021Z,5.32
2023-01-31T13:50:54.729Z,5.27
2023-01-31T13:53:27.986Z,5.22
2023-01-31T13:55:55.053Z,5.18
2023-01-31T13:58:35.268Z,5.14
2023-01-31T14:01:22.918Z,5.07
2023-01-31T14:04:11.676Z,5.05
2023-01-31T14:06:56.455Z,5.07
2023-01-31T14:09:31.706Z,5.05
2023-01-31T14:12:00.880Z,5.04
2023-01-31T14:14:37.229Z,5.07
2023-01-31T14:17:05.186Z,5.04
2023-01-31T14:19:51.761Z,5.02
2023-01-31T14:22:19.699Z,5.00
2023-01-31T14:24:59.927Z,4.97
2023-01-31T14:27:42.392Z,5.02
2023-01-31T14:30:26.824Z,5.02
2023-01-31T14:33:02.521Z,5.04
2023-01-31T14:35:49.352Z,5.07
2023-01-31T14:38:30.126Z,5.06
2023-01-31T14:41:38.113Z,5.09
2023-01-31T14:44:07.468Z,5.07
2023-01-31T14:47:07.738Z,5.00
2023-01-31T14:49:52.955Z,5.00
2023-01-31T14:52:36.252Z,4.98
2023-01-31T14:55:20.411Z,4.96
2023-01-31T14:57:51.412Z,4.95
2023-01-31T15:00:23.763Z,4.95
2023-01-31T15:03:07.662Z,4.96
2023-01-31T15:05:37.489Z,4.97
2023-01-31T15:08:26.767Z,4.95
2023-01-31T15:10:58.841Z,4.93
2023-01-31T15:13:37.353Z,4.93
2023-01-31T15:16:07.605Z,4.94
2023-01-31T15:18:34.587Z,4.94
2023-01-31T15:21:05.607Z,4.94
2023-01-31T15:23:35.160Z,4.97
2023-01-31T15:26:02.963Z,4.93
2023-01-31T15:28:35.584Z,4.91
2023-01-31T15:31:16.311Z,4.95
2023-01-31T15:33:45.563Z,4.96
2023-01-31T15:36:30.146Z,4.95
2023-01-31T15:39:01.505Z,4.96
2023-01-31T15:41:43.147Z,5.00
2023-01-31T15:44:20.594Z,4.99
2023-01-31T15:46:49.903Z,5.01
2023-01-31T15:49:38.403Z,5.05
2023-01-31T15:52:13.579Z,5.03
2023-01-31T15:54:51.377Z,4.96
2023-01-31T15:57:18.888Z,5.03
2023-01-31T15:59:48.185Z,5.01
2023-01-31T16:02:20.930Z,5.01
2023-01-31T16:04:47.528Z,5.01
2023-01-31T16:07:19.856Z,4.99
2023-01-31T16:09:46.871Z,5.02
2023-01-31T16:12:14.893Z,5.03
2023-01-31T16:14:48.244Z,5.00
2023-01-31T16:17:15.584Z,5.03
2023-01-31T16:19:42.207Z,5.03
2023-01-31T16:22:28.022Z,5.06
2023-01-31T16:25:05.269Z,5.02
2023-01-31T16:27:37.344Z,5.04
2023-01-31T16:30:05.304Z,5.01
2023-01-31T16:32:33.981Z,5.04
2023-01-31T16:35:20.608Z,5.03
2023-01-31T16:38:00.424Z,5.00
2023-01-31T16:40:31.488Z,4.96
2023-01-31T16:43:19.972Z,4.99
2023-01-31T16:45:54.068Z,5.02
2023-01-31T16:48:28.060Z,5.01
2023-01-31T16:50:57.863Z,4.98
2023-01-31T16:53:32.952Z,4.96
2023-01-31T16:56:14.685Z,4.99
2023-01-31T16:58:50.920Z,5.00
2023-01-31T17:01:22.102Z,4.99
2023-01-31T17:04:02.243Z,4.96
2023-01-31T17:06:29.130Z,4.95
2023-01-31T17:08:55.715Z,4.95
2023-01-31T17:11:39.615Z,4.96
2023-01-31T17:14:08.467Z,4.92
2023-01-31T17:16:34.903Z,4.91
2023-01-31T17:19:01.386Z,4.93
2023-01-31T17:21:29.117Z,4.91
2023-01-31T17:23:55.518Z,4.91
2023-01-31T17:26:23.446Z,4.86
2023-01-31T17:29:00.932Z,4.83
2023-01-31T17:31:29.850Z,4.84
2023-01-31T17:33:59.568Z,4.87
2023-01-31T17:36:26.028Z,4.86
2023-01-31T17:38:53.116Z,4.82
2023-01-31T17:41:21.465Z,4.87
2023-01-31T17:43:48.093Z,4.88
2023-01-31T17:46:16.464Z,4.83
2023-01-31T17:48:43.208Z,4.84
2023-01-31T17:51:11.082Z,4.89
2023-01-31T17:53:48.827Z,4.87
2023-01-31T17:56:16.104Z,4.90
2023-01-31T17:58:42.622Z,4.92
2023-01-31T18:01:10.719Z,4.98
2023-01-31T18:03:37.251Z,4.98
2023-01-31T18:06:05.151Z,4.97
2023-01-31T18:08:31.652Z,4.97
2023-01-31T18:11:07.014Z,5.00
2023-01-31T18:13:33.446Z,4.99
2023-01-31T18:16:11.775Z,4.99
2023-01-31T18:18:43.767Z,5.00
2023-01-31T18:21:12.315Z,5.00
2023-01-31T18:23:38.825Z,4.99
2023-01-31T18:26:06.971Z,4.98
2023-01-31T18:28:34.063Z,4.93
2023-01-31T18:31:05.041Z,4.92
2023-01-31T18:33:32.276Z,4.91
2023-01-31T18:36:00.713Z,5.00
2023-01-31T18:38:29.449Z,5.02
2023-01-31T18:40:56.602Z,5.04
2023-01-31T18:43:23.426Z,5.07
2023-01-31T18:45:49.840Z,5.04
2023-01-31T18:48:16.265Z,5.03
2023-01-31T18:50:43.114Z,5.07
2023-01-31T18:53:09.602Z,5.09
2023-01-31T18:55:35.991Z,5.11
2023-01-31T18:58:02.444Z,5.15
2023-01-31T19:00:29.005Z,5.15
2023-01-31T19:02:55.611Z,5.14
2023-01-31T19:05:23.617Z,5.15
2023-01-31T19:07:50.231Z,5.15
2023-01-31T19:10:17.077Z,5.16
2023-01-31T19:12:43.480Z,5.17
2023-01-31T19:15:12.206Z,5.17
2023-01-31T19:17:38.820Z,5.19
2023-01-31T19:20:06.106Z,5.17
2023-01-31T19:22:32.599Z,5.20
2023-01-31T19:24:58.991Z,5.14
2023-01-31T19:27:25.880Z,5.17
2023-01-31T19:29:52.482Z,5.15
2023-01-31T19:32:18.902Z,5.17
2023-01-31T19:34:45.421Z,5.15
2023-01-31T19:37:11.829Z,5.14
2023-01-31T19:39:38.404Z,5.17
2023-01-31T19:42:04.851Z,5.13
2023-01-31T19:44:31.814Z,5.13
2023-01-31T19:46:58.247Z,5.10
2023-01-31T19:49:24.702Z,5.10
2023-01-31T19:51:51.121Z,5.13
2023-01-31T19:54:19.171Z,5.14
2023-01-31T19:56:45.737Z,5.14
2023-01-31T19:59:12.574Z,5.17
2023-01-31T20:01:39.086Z,5.21
2023-01-31T20:04:05.570Z,5.20
2023-01-31T20:06:33.989Z,5.23
2023-01-31T20:09:04.357Z,5.24
2023-01-31T20:11:30.772Z,5.19
2023-01-31T20:13:58.227Z,5.26
2023-01-31T20:16:25.278Z,5.21
2023-01-31T20:18:53.041Z,5.21
2023-01-31T20:21:21.050Z,5.16
2023-01-31T20:23:48.676Z,5.04
2023-01-31T20:26:16.371Z,5.01
2023-01-31T20:28:44.309Z,4.93
2023-01-31T20:31:12.909Z,4.87
2023-01-31T20:33:39.751Z,4.85
2023-01-31T20:36:06.817Z,4.81
2023-01-31T20:38:33.400Z,4.81
2023-01-31T20:40:59.980Z,4.79
2023-01-31T20:43:27.153Z,4.70
2023-01-31T20:46:00.850Z,4.64
2023-01-31T20:48:27.347Z,4.55
2023-01-31T20:50:55.529Z,4.57
2023-01-31T20:53:22.778Z,4.61
2023-01-31T20:56:07.421Z,4.57
2023-01-31T20:58:36.911Z,4.52
2023-01-31T21:01:06.213Z,4.48
2023-01-31T21:03:33.692Z,4.52
2023-01-31T21:06:01.187Z,4.49
2023-01-31T21:08:28.705Z,4.48
2023-01-31T21:10:56.694Z,4.47
2023-01-31T21:13:24.084Z,4.47
2023-01-31T21:15:55.324Z,4.48
2023-01-31T21:18:24.643Z,4.49
2023-01-31T21:20:51.158Z,4.49
2023-01-31T21:23:17.721Z,4.48
2023-01-31T21:25:47.811Z,4.47
2023-01-31T21:28:14.438Z,4.47
2023-01-31T21:30:41.394Z,4.46
2023-01-31T21:33:08.048Z,4.46
2023-01-31T21:35:34.608Z,4.39
2023-01-31T21:38:01.204Z,4.45
2023-01-31T21:40:27.627Z,4.48
2023-01-31T21:42:54.493Z,4.44
2023-01-31T21:45:39.619Z,4.39
2023-01-31T21:48:27.022Z,4.37
2023-01-31T21:50:53.958Z,4.33
2023-01-31T21:53:20.460Z,4.33
2023-01-31T21:55:47.117Z,4.36
2023-01-31T21:58:13.548Z,4.37
2023-01-31T22:00:40.136Z,4.36
2023-01-31T22:03:06.507Z,4.29
2023-01-31T22:05:32.989Z,4.29
2023-01-31T22:07:59.358Z,4.22
2023-01-31T22:10:25.760Z,4.22
2023-01-31T22:12:52.240Z,4.21
2023-01-31T22:15:18.821Z,4.19
2023-01-31T22:17:45.265Z,4.22
2023-01-31T22:20:12.101Z,4.24
2023-01-31T22:22:38.526Z,4.23
2023-01-31T22:25:05.418Z,4.19
2023-01-31T22:27:31.836Z,4.22
2023-01-31T22:30:06.617Z,4.23
2023-01-31T22:32:40.539Z,4.23
2023-01-31T22:35:07.247Z,4.22
2023-01-31T22:37:33.702Z,4.21
2023-01-31T22:40:00.157Z,4.20
2023-01-31T22:42:26.546Z,4.20
2023-01-31T22:44:52.994Z,4.23
2023-01-31T22:47:19.477Z,4.24
2023-01-31T22:49:45.857Z,4.23
2023-01-31T22:52:12.289Z,4.22
2023-01-31T22:54:38.649Z,4.23
2023-01-31T22:57:05.059Z,4.23
2023-01-31T22:59:31.481Z,4.25
2023-01-31T23:02:01.975Z,4.20
2023-01-31T23:04:28.707Z,4.16
2023-01-31T23:06:55.463Z,4.14
2023-01-31T23:09:22.188Z,4.14
2023-01-31T23:11:50.282Z,4.15
2023-01-31T23:14:21.897Z,4.17
2023-01-31T23:17:06.993Z,4.19
2023-01-31T23:19:33.370Z,4.23
2023-01-31T23:21:59.758Z,4.18
2023-01-31T23:24:26.147Z,4.15
2023-01-31T23:26:54.351Z,4.13
2023-01-31T23:29:20.871Z,4.19
2023-01-31T23:31:47.653Z,4.19
2023-01-31T23:34:14.112Z,4.17
2023-01-31T23:36:40.477Z,4.12
2023-01-31T23:39:06.914Z,4.08
2023-01-31T23:41:33.312Z,4.07
2023-01-31T23:44:00.109Z,4.08
2023-01-31T23:46:26.634Z,4.03
2023-01-31T23:48:53.285Z,4.02
2023-01-31T23:51:19.710Z,4.02
2023-01-31T23:53:48.780Z,3.96
2023-01-31T23:56:15.143Z,3.98
2023-01-31T23:58:41.529Z,3.94
